createdAt,value
2022-10-09T00:01:29.613Z,7.90
2022-10-09T00:03:59.487Z,9.30
2022-10-09T00:06:31.533Z,8.77
2022-10-09T00:09:01.765Z,8.50
2022-10-09T00:11:31.387Z,9.10
2022-10-09T00:14:00.162Z,9.17
2022-10-09T00:16:29.233Z,8.07
2022-10-09T00:18:58.099Z,8.20
2022-10-09T00:21:29.821Z,7.10
2022-10-09T00:24:00.085Z,8.33
2022-10-09T00:26:29.146Z,8.00
2022-10-09T00:28:58.482Z,9.00
2022-10-09T00:31:26.628Z,7.67
2022-10-09T00:33:55.014Z,8.73
2022-10-09T00:36:26.562Z,7.40
2022-10-09T00:38:57.409Z,8.30
2022-10-09T00:41:28.515Z,8.70
2022-10-09T00:44:01.596Z,8.20
2022-10-09T00:46:35.481Z,8.17
2022-10-09T00:49:11.774Z,9.20
2022-10-09T00:51:42.062Z,8.97
2022-10-09T00:54:15.510Z,9.30
2022-10-09T00:56:44.104Z,9.00
2022-10-09T00:59:12.785Z,8.50
2022-10-09T01:01:43.075Z,8.13
2022-10-09T01:04:11.435Z,9.13
2022-10-09T01:06:51.464Z,8.67
2022-10-09T01:09:25.272Z,7.60
2022-10-09T01:12:00.453Z,8.30
2022-10-09T01:14:31.878Z,8.20
2022-10-09T01:17:09.054Z,8.90
2022-10-09T01:19:51.070Z,9.33
2022-10-09T01:22:32.229Z,8.90
2022-10-09T01:25:07.216Z,8.70
2022-10-09T01:27:38.864Z,8.27
2022-10-09T01:30:09.728Z,10.37
2022-10-09T01:32:42.966Z,8.93
2022-10-09T01:35:13.609Z,9.13
2022-10-09T01:37:44.323Z,8.93
2022-10-09T01:40:15.307Z,9.03
2022-10-09T01:42:47.325Z,8.40
2022-10-09T01:45:17.289Z,8.30
2022-10-09T01:47:46.366Z,9.30
2022-10-09T01:50:20.937Z,8.63
2022-10-09T01:52:52.885Z,9.10
2022-10-09T01:55:35.045Z,9.80
2022-10-09T01:58:10.821Z,8.53
2022-10-09T02:00:43.815Z,7.77
2022-10-09T02:03:15.566Z,7.73
2022-10-09T02:05:46.295Z,7.63
2022-10-09T02:08:18.707Z,8.00
2022-10-09T02:10:50.146Z,8.70
2022-10-09T02:13:19.963Z,9.27
2022-10-09T02:15:52.452Z,7.30
2022-10-09T02:18:27.068Z,7.80
2022-10-09T02:20:59.914Z,8.40
2022-10-09T02:23:30.029Z,8.37
2022-10-09T02:25:59.169Z,8.10
2022-10-09T02:28:28.813Z,8.37
2022-10-09T02:31:03.215Z,7.67
2022-10-09T02:33:35.257Z,7.80
2022-10-09T02:36:05.116Z,8.67
2022-10-09T02:38:33.458Z,8.17
2022-10-09T02:41:01.975Z,7.70
2022-10-09T02:43:31.819Z,7.53
2022-10-09T02:46:00.055Z,7.60
2022-10-09T02:48:28.469Z,9.07
2022-10-09T02:50:57.039Z,7.00
2022-10-09T02:53:26.213Z,7.20
2022-10-09T02:55:54.497Z,7.40
2022-10-09T02:58:23.035Z,6.37
2022-10-09T03:00:53.460Z,7.60
2022-10-09T03:03:22.245Z,7.20
2022-10-09T03:06:00.053Z,6.77
2022-10-09T03:08:28.529Z,7.57
2022-10-09T03:10:57.359Z,8.20
2022-10-09T03:13:25.584Z,7.40
2022-10-09T03:15:55.225Z,8.20
2022-10-09T03:18:23.629Z,8.70
2022-10-09T03:20:51.976Z,8.50
2022-10-09T03:23:20.216Z,7.60
2022-10-09T03:25:57.170Z,7.70
2022-10-09T03:28:27.211Z,7.00
2022-10-09T03:30:56.937Z,6.70
2022-10-09T03:33:25.482Z,7.67
2022-10-09T03:35:53.801Z,7.33
2022-10-09T03:38:21.816Z,7.60
2022-10-09T03:40:50.273Z,7.83
2022-10-09T03:43:18.487Z,7.67
2022-10-09T03:45:47.270Z,7.40
2022-10-09T03:48:17.019Z,7.47
2022-10-09T03:50:45.653Z,7.07
2022-10-09T03:53:15.081Z,6.37
2022-10-09T03:55:44.089Z,7.93
2022-10-09T03:58:12.487Z,7.33
2022-10-09T04:00:41.568Z,7.40
2022-10-09T04:03:10.137Z,7.60
2022-10-09T04:05:39.914Z,7.13
2022-10-09T04:08:08.326Z,6.90
2022-10-09T04:10:36.540Z,8.00
2022-10-09T04:13:04.740Z,6.63
2022-10-09T04:15:33.351Z,6.83
2022-10-09T04:18:01.322Z,6.60
2022-10-09T04:20:30.055Z,7.30
2022-10-09T04:22:59.683Z,7.33
2022-10-09T04:25:28.113Z,7.00
2022-10-09T04:27:56.479Z,8.07
2022-10-09T04:30:24.717Z,6.93
2022-10-09T04:32:53.715Z,7.10
2022-10-09T04:35:22.507Z,6.30
2022-10-09T04:37:50.738Z,7.37
2022-10-09T04:40:20.259Z,7.13
2022-10-09T04:42:48.965Z,7.53
2022-10-09T04:45:17.264Z,7.60
2022-10-09T04:47:45.694Z,7.13
2022-10-09T04:50:15.007Z,6.63
2022-10-09T04:52:59.007Z,6.77
2022-10-09T04:55:28.536Z,6.30
2022-10-09T04:57:57.185Z,6.70
2022-10-09T05:00:25.204Z,6.87
2022-10-09T05:02:53.838Z,6.70
2022-10-09T05:05:22.219Z,5.90
2022-10-09T05:07:50.806Z,6.60
2022-10-09T05:10:19.793Z,7.10
2022-10-09T05:12:49.429Z,5.70
2022-10-09T05:15:18.934Z,6.77
2022-10-09T05:17:47.139Z,6.90
2022-10-09T05:20:15.606Z,7.33
2022-10-09T05:22:45.370Z,7.63
2022-10-09T05:25:14.027Z,5.50
2022-10-09T05:27:42.238Z,6.40
2022-10-09T05:30:12.850Z,7.00
2022-10-09T05:32:41.268Z,6.27
2022-10-09T05:35:10.330Z,6.87
2022-10-09T05:37:38.841Z,6.70
2022-10-09T05:40:08.472Z,5.83
2022-10-09T05:42:37.232Z,6.10
2022-10-09T05:45:05.821Z,7.17
2022-10-09T05:47:35.498Z,8.80
2022-10-09T05:50:04.246Z,6.00
2022-10-09T05:52:32.250Z,8.10
2022-10-09T05:55:00.678Z,6.20
2022-10-09T05:57:29.219Z,7.27
2022-10-09T05:59:57.915Z,6.13
2022-10-09T06:02:26.247Z,6.70
2022-10-09T06:04:56.189Z,7.13
2022-10-09T06:07:26.012Z,6.00
2022-10-09T06:09:54.175Z,7.33
2022-10-09T06:12:22.761Z,6.63
2022-10-09T06:14:51.497Z,6.80
2022-10-09T06:17:19.880Z,7.10
2022-10-09T06:19:48.172Z,6.87
2022-10-09T06:22:17.833Z,6.40
2022-10-09T06:24:46.015Z,7.07
2022-10-09T06:27:14.393Z,6.40
2022-10-09T06:29:42.597Z,6.30
2022-10-09T06:32:11.512Z,6.30
2022-10-09T06:34:39.490Z,7.00
2022-10-09T06:37:07.934Z,6.60
2022-10-09T06:39:37.930Z,6.83
2022-10-09T06:42:06.373Z,7.13
2022-10-09T06:44:52.155Z,6.50
2022-10-09T06:47:20.907Z,7.27
2022-10-09T06:49:49.485Z,6.27
2022-10-09T06:52:17.677Z,7.13
2022-10-09T06:54:47.516Z,6.93
2022-10-09T06:57:15.732Z,6.73
2022-10-09T06:59:44.297Z,7.17
2022-10-09T07:02:12.349Z,7.03
2022-10-09T07:04:40.593Z,8.03
2022-10-09T07:07:09.560Z,7.20
2022-10-09T07:09:38.681Z,6.73
2022-10-09T07:12:08.632Z,6.50
2022-10-09T07:14:36.712Z,6.70
2022-10-09T07:17:06.071Z,8.07
2022-10-09T07:19:34.677Z,7.33
2022-10-09T07:22:03.290Z,7.10
2022-10-09T07:24:31.680Z,8.13
2022-10-09T07:26:59.868Z,7.17
2022-10-09T07:29:29.822Z,6.77
2022-10-09T07:31:57.880Z,7.30
2022-10-09T07:34:26.671Z,9.40
2022-10-09T07:36:56.167Z,7.70
2022-10-09T07:39:25.354Z,8.30
2022-10-09T07:41:53.520Z,6.87
2022-10-09T07:44:22.252Z,8.17
2022-10-09T07:46:52.476Z,7.10
2022-10-09T07:49:21.327Z,8.23
2022-10-09T07:51:49.919Z,7.27
2022-10-09T07:54:18.851Z,6.63
2022-10-09T07:56:47.071Z,7.00
2022-10-09T07:59:17.079Z,6.97
2022-10-09T08:01:45.700Z,6.57
2022-10-09T08:04:15.473Z,7.07
2022-10-09T08:06:43.624Z,6.83
2022-10-09T08:09:12.118Z,8.73
2022-10-09T08:11:41.055Z,6.30
2022-10-09T08:14:18.014Z,6.90
2022-10-09T08:16:48.198Z,7.93
2022-10-09T08:19:18.317Z,6.97
2022-10-09T08:21:46.514Z,8.30
2022-10-09T08:24:14.808Z,7.67
2022-10-09T08:26:44.348Z,7.10
2022-10-09T08:29:16.024Z,8.33
2022-10-09T08:31:45.109Z,9.73
2022-10-09T08:34:13.271Z,7.63
2022-10-09T08:36:42.920Z,11.10
2022-10-09T08:39:11.769Z,10.30
2022-10-09T08:41:44.744Z,9.27
2022-10-09T08:44:18.241Z,9.53
2022-10-09T08:46:59.712Z,8.90
2022-10-09T08:49:36.021Z,10.60
2022-10-09T08:52:16.127Z,9.13
2022-10-09T08:54:45.208Z,8.53
2022-10-09T08:57:15.703Z,9.07
2022-10-09T08:59:44.641Z,7.17
2022-10-09T09:02:30.822Z,7.90
2022-10-09T09:05:09.167Z,9.97
2022-10-09T09:07:48.258Z,9.33
2022-10-09T09:10:26.045Z,7.60
2022-10-09T09:12:59.948Z,8.00
2022-10-09T09:15:40.232Z,8.43
2022-10-09T09:18:23.892Z,8.63
2022-10-09T09:20:54.483Z,8.27
2022-10-09T09:23:28.464Z,7.27
2022-10-09T09:25:59.706Z,8.13
2022-10-09T09:28:31.344Z,8.03
2022-10-09T09:31:04.843Z,8.07
2022-10-09T09:33:44.642Z,7.47
2022-10-09T09:36:21.194Z,7.03
2022-10-09T09:39:40.845Z,7.73
2022-10-09T09:41:42.460Z,7.20
2022-10-09T09:44:12.421Z,7.00
2022-10-09T09:46:41.308Z,7.83
2022-10-09T09:49:20.547Z,7.40
2022-10-09T09:51:50.760Z,6.53
2022-10-09T09:54:22.615Z,5.70
2022-10-09T09:57:11.952Z,6.70
2022-10-09T09:59:43.280Z,6.73
2022-10-09T10:02:18.610Z,6.60
2022-10-09T10:04:52.637Z,6.43
2022-10-09T10:07:32.242Z,6.80
2022-10-09T10:10:07.870Z,6.43
2022-10-09T10:12:41.585Z,6.20
2022-10-09T10:15:22.435Z,6.63
2022-10-09T10:17:56.940Z,5.57
2022-10-09T10:20:26.420Z,6.60
2022-10-09T10:22:56.487Z,6.60
2022-10-09T10:25:32.428Z,5.87
2022-10-09T10:28:06.889Z,7.00
2022-10-09T10:30:36.468Z,7.03
2022-10-09T10:33:09.135Z,5.77
2022-10-09T10:35:40.543Z,6.20
2022-10-09T10:38:14.631Z,6.03
2022-10-09T10:40:50.609Z,5.73
2022-10-09T10:43:34.374Z,6.10
2022-10-09T10:46:12.033Z,6.03
2022-10-09T10:48:42.685Z,6.30
2022-10-09T10:51:31.126Z,4.83
2022-10-09T10:54:09.973Z,6.73
2022-10-09T10:56:46.541Z,7.20
2022-10-09T10:59:30.296Z,5.63
2022-10-09T11:02:19.322Z,6.30
2022-10-09T11:04:55.941Z,6.10
2022-10-09T11:07:31.831Z,5.63
2022-10-09T11:10:08.006Z,6.17
2022-10-09T11:12:48.421Z,5.90
2022-10-09T11:15:24.476Z,5.80
2022-10-09T11:18:00.420Z,6.47
2022-10-09T11:20:55.291Z,6.47
2022-10-09T11:23:33.896Z,6.50
2022-10-09T11:26:14.429Z,6.63
2022-10-09T11:28:49.782Z,6.40
2022-10-09T11:31:21.728Z,6.50
2022-10-09T11:33:53.269Z,6.10
2022-10-09T11:36:26.340Z,5.83
2022-10-09T11:38:59.653Z,6.20
2022-10-09T11:41:30.025Z,5.63
2022-10-09T11:44:14.175Z,6.03
2022-10-09T11:46:49.988Z,6.10
2022-10-09T11:49:25.305Z,6.20
2022-10-09T11:51:57.875Z,6.20
2022-10-09T11:54:29.242Z,7.13
2022-10-09T11:57:00.161Z,5.90
2022-10-09T11:59:31.940Z,5.40
2022-10-09T12:02:02.140Z,5.10
2022-10-09T12:04:53.576Z,5.90
2022-10-09T12:07:35.285Z,5.77
2022-10-09T12:10:07.788Z,4.90
2022-10-09T12:12:38.819Z,6.10
2022-10-09T12:15:27.279Z,5.70
2022-10-09T12:17:55.899Z,5.60
2022-10-09T12:20:26.161Z,5.30
2022-10-09T12:23:21.844Z,4.80
2022-10-09T12:25:47.846Z,5.50
2022-10-09T12:28:26.920Z,4.50
2022-10-09T12:31:00.804Z,5.03
2022-10-09T12:33:34.738Z,4.50
2022-10-09T12:36:13.499Z,4.63
2022-10-09T12:38:42.876Z,4.70
2022-10-09T12:41:20.130Z,4.77
2022-10-09T12:43:51.290Z,4.90
2022-10-09T12:46:30.593Z,4.53
2022-10-09T12:49:00.622Z,5.47
2022-10-09T12:51:32.307Z,5.37
2022-10-09T12:54:00.844Z,4.30
2022-10-09T12:56:32.892Z,4.67
2022-10-09T12:59:02.658Z,5.10
2022-10-09T13:01:34.744Z,5.70
2022-10-09T13:04:04.975Z,4.40
2022-10-09T13:06:38.999Z,5.50
2022-10-09T13:09:09.695Z,4.97
2022-10-09T13:11:40.849Z,5.20
2022-10-09T13:14:24.532Z,5.23
2022-10-09T13:16:55.005Z,4.73
2022-10-09T13:19:26.749Z,5.30
2022-10-09T13:22:06.904Z,4.40
2022-10-09T13:24:36.447Z,5.80
2022-10-09T13:27:05.266Z,5.43
2022-10-09T13:29:34.018Z,6.60
2022-10-09T13:32:03.962Z,5.20
2022-10-09T13:34:32.476Z,5.67
2022-10-09T13:37:00.464Z,5.17
2022-10-09T13:39:30.034Z,4.87
2022-10-09T13:41:59.508Z,5.40
2022-10-09T13:44:28.398Z,5.00
2022-10-09T13:46:56.744Z,5.83
2022-10-09T13:49:26.658Z,5.10
2022-10-09T13:51:55.092Z,5.70
2022-10-09T13:54:23.278Z,5.47
2022-10-09T13:56:52.062Z,5.83
2022-10-09T13:59:20.110Z,6.03
2022-10-09T14:01:49.092Z,5.03
2022-10-09T14:04:17.948Z,4.83
2022-10-09T14:06:47.593Z,5.50
2022-10-09T14:09:16.401Z,4.47
2022-10-09T14:11:44.805Z,5.13
2022-10-09T14:14:12.988Z,4.97
2022-10-09T14:16:41.378Z,5.60
2022-10-09T14:19:11.000Z,5.60
2022-10-09T14:21:39.853Z,5.40
2022-10-09T14:24:10.194Z,5.23
2022-10-09T14:26:39.045Z,5.97
2022-10-09T14:29:07.310Z,5.37
2022-10-09T14:31:35.676Z,5.00
2022-10-09T14:34:03.938Z,5.73
2022-10-09T14:36:33.720Z,5.87
2022-10-09T14:39:02.074Z,5.67
2022-10-09T14:41:36.825Z,6.60
2022-10-09T14:44:07.163Z,5.10
2022-10-09T14:46:37.956Z,4.70
2022-10-09T14:49:08.117Z,6.20
2022-10-09T14:51:38.278Z,5.60
2022-10-09T14:54:07.718Z,5.23
2022-10-09T14:56:38.291Z,4.70
2022-10-09T14:59:07.211Z,5.17
2022-10-09T15:01:36.212Z,5.07
2022-10-09T15:04:05.848Z,4.67
2022-10-09T15:06:35.603Z,5.60
2022-10-09T15:09:06.225Z,5.00
2022-10-09T15:11:35.753Z,5.20
2022-10-09T15:14:05.867Z,4.23
2022-10-09T15:16:34.123Z,5.00
2022-10-09T15:19:03.230Z,5.03
2022-10-09T15:21:33.287Z,3.87
2022-10-09T15:24:03.315Z,5.50
2022-10-09T15:26:33.867Z,4.77
2022-10-09T15:29:03.875Z,5.03
2022-10-09T15:31:36.040Z,4.90
2022-10-09T15:34:07.458Z,5.23
2022-10-09T15:36:38.724Z,5.20
2022-10-09T15:39:08.805Z,4.93
2022-10-09T15:41:39.201Z,4.37
2022-10-09T15:44:14.139Z,4.20
2022-10-09T15:46:43.907Z,6.30
2022-10-09T15:49:12.867Z,5.10
2022-10-09T15:51:41.397Z,4.73
2022-10-09T15:54:09.729Z,4.43
2022-10-09T15:56:40.077Z,4.30
2022-10-09T15:59:11.636Z,4.23
2022-10-09T16:01:40.527Z,4.60
2022-10-09T16:04:10.551Z,4.50
2022-10-09T16:06:39.403Z,4.30
2022-10-09T16:09:08.358Z,4.10
2022-10-09T16:11:36.624Z,4.87
2022-10-09T16:14:05.494Z,4.67
2022-10-09T16:16:33.747Z,4.47
2022-10-09T16:19:03.963Z,4.70
2022-10-09T16:21:33.938Z,4.57
2022-10-09T16:24:02.363Z,4.70
2022-10-09T16:26:31.099Z,5.40
2022-10-09T16:29:01.353Z,4.47
2022-10-09T16:31:31.778Z,4.90
2022-10-09T16:34:00.171Z,4.73
2022-10-09T16:36:29.229Z,4.80
2022-10-09T16:39:00.057Z,4.80
2022-10-09T16:41:29.422Z,4.70
2022-10-09T16:44:00.234Z,5.27
2022-10-09T16:46:32.320Z,4.77
2022-10-09T16:49:01.894Z,5.23
2022-10-09T16:51:33.459Z,6.23
2022-10-09T16:54:04.712Z,5.80
2022-10-09T16:56:36.413Z,5.80
2022-10-09T16:59:07.533Z,5.60
2022-10-09T17:01:37.978Z,5.37
2022-10-09T17:04:06.441Z,5.53
2022-10-09T17:06:34.585Z,5.40
2022-10-09T17:09:04.863Z,4.93
2022-10-09T17:11:33.525Z,6.13
2022-10-09T17:14:02.953Z,6.13
2022-10-09T17:16:33.150Z,5.40
2022-10-09T17:19:01.962Z,5.30
2022-10-09T17:21:34.232Z,5.77
2022-10-09T17:24:06.734Z,5.97
2022-10-09T17:26:36.099Z,5.60
2022-10-09T17:29:05.174Z,5.47
2022-10-09T17:31:33.813Z,5.90
2022-10-09T17:34:03.921Z,9.20
2022-10-09T17:36:35.026Z,13.37
2022-10-09T17:39:06.691Z,8.27
2022-10-09T17:41:35.470Z,5.63
2022-10-09T17:44:04.241Z,6.03
2022-10-09T17:46:34.365Z,5.57
2022-10-09T17:49:02.671Z,5.80
2022-10-09T17:51:32.701Z,6.13
2022-10-09T17:54:03.399Z,5.57
2022-10-09T17:56:34.744Z,5.37
2022-10-09T17:59:03.997Z,6.20
2022-10-09T18:01:32.822Z,7.03
2022-10-09T18:04:01.598Z,6.67
2022-10-09T18:06:33.003Z,9.53
2022-10-09T18:09:01.754Z,14.60
2022-10-09T18:11:31.136Z,12.03
2022-10-09T18:14:00.740Z,11.73
2022-10-09T18:16:36.119Z,11.00
2022-10-09T18:19:11.226Z,8.10
2022-10-09T18:21:42.324Z,6.80
2022-10-09T18:24:10.613Z,5.93
2022-10-09T18:26:38.628Z,6.60
2022-10-09T18:29:08.882Z,5.47
2022-10-09T18:31:38.481Z,6.80
2022-10-09T18:34:07.118Z,6.77
2022-10-09T18:36:36.096Z,6.40
2022-10-09T18:39:08.037Z,8.47
2022-10-09T18:41:37.276Z,8.23
2022-10-09T18:44:07.083Z,6.57
2022-10-09T18:46:40.027Z,8.23
2022-10-09T18:49:10.737Z,10.90
2022-10-09T18:51:40.686Z,10.90
2022-10-09T18:54:13.236Z,8.77
2022-10-09T18:56:44.471Z,8.60
2022-10-09T18:59:15.836Z,9.60
2022-10-09T19:01:45.810Z,8.10
2022-10-09T19:04:14.154Z,8.30
2022-10-09T19:06:42.812Z,6.80
2022-10-09T19:09:11.592Z,7.50
2022-10-09T19:11:40.551Z,7.60
2022-10-09T19:14:09.053Z,7.67
2022-10-09T19:16:37.128Z,7.50
2022-10-09T19:19:07.161Z,7.83
2022-10-09T19:21:36.340Z,7.20
2022-10-09T19:24:06.391Z,8.47
2022-10-09T19:26:35.642Z,8.83
2022-10-09T19:29:05.409Z,10.33
2022-10-09T19:31:34.056Z,8.60
2022-10-09T19:34:02.806Z,10.30
2022-10-09T19:36:34.521Z,11.13
2022-10-09T19:39:03.684Z,9.23
2022-10-09T19:41:32.203Z,8.30
2022-10-09T19:44:01.465Z,8.33
2022-10-09T19:54:28.602Z,6.53
2022-10-09T19:56:57.087Z,6.90
2022-10-09T19:59:25.182Z,6.77
2022-10-09T20:01:57.348Z,5.87
2022-10-09T20:04:26.160Z,7.43
2022-10-09T20:06:54.396Z,7.33
2022-10-09T20:09:22.759Z,8.10
2022-10-09T20:11:52.304Z,7.90
2022-10-09T20:14:21.071Z,7.63
2022-10-09T20:16:49.087Z,8.10
2022-10-09T20:19:17.419Z,6.90
2022-10-09T20:21:46.366Z,6.90
2022-10-09T20:24:14.475Z,7.03
2022-10-09T20:26:43.595Z,6.37
2022-10-09T20:29:13.272Z,6.13
2022-10-09T20:31:42.144Z,6.77
2022-10-09T20:34:10.250Z,6.77
2022-10-09T20:36:40.023Z,5.80
2022-10-09T20:39:09.952Z,5.07
2022-10-09T20:41:39.046Z,5.23
2022-10-09T20:44:07.951Z,5.60
2022-10-09T20:46:38.674Z,5.00
2022-10-09T20:49:08.689Z,5.37
2022-10-09T20:51:37.940Z,5.77
2022-10-09T20:54:08.108Z,4.70
2022-10-09T20:56:36.615Z,5.03
2022-10-09T20:59:05.200Z,4.83
2022-10-09T21:01:33.830Z,5.10
2022-10-09T21:04:05.529Z,4.40
2022-10-09T21:06:36.194Z,4.80
2022-10-09T21:09:04.780Z,4.60
2022-10-09T21:11:34.695Z,4.80
2022-10-09T21:14:03.522Z,4.37
2022-10-09T21:16:31.685Z,5.00
2022-10-09T21:19:02.090Z,4.00
2022-10-09T21:21:32.290Z,4.33
2022-10-09T21:24:01.588Z,4.20
2022-10-09T21:26:31.515Z,4.90
2022-10-09T21:29:00.207Z,4.30
2022-10-09T21:31:30.749Z,4.70
2022-10-09T21:34:00.626Z,4.30
2022-10-09T21:36:37.394Z,4.70
2022-10-09T21:39:07.268Z,4.50
2022-10-09T21:41:36.040Z,4.43
2022-10-09T21:44:04.644Z,4.77
2022-10-09T21:46:33.222Z,4.40
2022-10-09T21:49:05.418Z,4.10
2022-10-09T21:51:36.952Z,4.30
2022-10-09T21:54:05.169Z,4.00
2022-10-09T21:56:33.232Z,4.23
2022-10-09T21:59:01.563Z,4.40
2022-10-09T22:01:30.218Z,3.70
2022-10-09T22:03:58.377Z,4.13
2022-10-09T22:06:26.925Z,4.50
2022-10-09T22:08:56.890Z,4.80
2022-10-09T22:11:25.349Z,4.73
2022-10-09T22:13:53.495Z,4.90
2022-10-09T22:16:21.457Z,5.03
2022-10-09T22:18:49.713Z,5.03
2022-10-09T22:21:19.252Z,5.00
2022-10-09T22:23:47.498Z,5.30
2022-10-09T22:26:19.229Z,5.43
2022-10-09T22:28:48.608Z,5.40
2022-10-09T22:31:19.244Z,4.90
2022-10-09T22:33:51.662Z,5.77
2022-10-09T22:36:21.867Z,5.13
2022-10-09T22:38:49.925Z,5.07
2022-10-09T22:41:21.297Z,5.40
2022-10-09T22:43:51.509Z,5.90
2022-10-09T22:46:22.601Z,5.10
2022-10-09T22:48:51.583Z,5.30
2022-10-09T22:51:21.391Z,5.30
2022-10-09T22:53:50.221Z,4.93
2022-10-09T22:56:21.287Z,5.40
2022-10-09T22:58:51.778Z,5.03
2022-10-09T23:01:24.961Z,5.20
2022-10-09T23:03:53.745Z,5.40
2022-10-09T23:06:21.925Z,5.47
2022-10-09T23:08:50.208Z,4.60
2022-10-09T23:11:21.720Z,5.53
2022-10-09T23:13:54.806Z,5.23
2022-10-09T23:16:24.146Z,5.17
2022-10-09T23:18:52.245Z,5.20
2022-10-09T23:21:22.252Z,4.83
2022-10-09T23:23:51.175Z,6.20
2022-10-09T23:26:22.483Z,5.20
2022-10-09T23:28:52.191Z,5.20
2022-10-09T23:31:20.476Z,5.60
2022-10-09T23:33:48.679Z,5.03
2022-10-09T23:36:20.022Z,5.33
2022-10-09T23:38:48.360Z,5.43
2022-10-09T23:41:18.615Z,5.40
2022-10-09T23:43:49.318Z,5.13
2022-10-09T23:46:19.199Z,5.40
2022-10-09T23:48:48.892Z,5.57
2022-10-09T23:51:17.880Z,5.40
2022-10-09T23:53:45.914Z,5.33
2022-10-09T23:56:18.178Z,5.20
2022-10-09T23:58:47.724Z,5.47
